Time;durP1;ratioP1;P1;durP2;ratioP2;P2;SDS_P1;SDS_P2;PMS_P1;PMS_P2;Temp;Humidity;BMP_temperature;BMP_pressure;BME280_temperature;BME280_humidity;BME280_pressure;Samples;Min_cycle;Max_cycle;Signal;HPM_P1;HPM_P2
2023/04/29 00:01:17;;;;;;;11.77;10.07;;;17.00;89.70;;;;;;6126317;23;20026;-74
2023/04/29 00:03:43;;;;;;;13.25;10.75;;;17.00;89.50;;;;;;6125579;23;20006;-74
2023/04/29 00:06:10;;;;;;;15.15;10.93;;;17.10;89.60;;;;;;6125741;23;20447;-74
2023/04/29 00:08:36;;;;;;;13.15;11.32;;;17.10;89.60;;;;;;6126527;23;20002;-75
2023/04/29 00:11:02;;;;;;;15.10;11.13;;;17.00;89.60;;;;;;6126517;23;20002;-75
2023/04/29 00:13:28;;;;;;;14.75;11.23;;;17.00;89.40;;;;;;6126544;23;20417;-75
2023/04/29 00:15:53;;;;;;;14.23;11.30;;;17.10;89.50;;;;;;6125749;23;20472;-75
2023/04/29 00:18:19;;;;;;;13.13;11.60;;;17.00;89.40;;;;;;6126854;23;20428;-75
2023/04/29 00:20:45;;;;;;;12.70;10.35;;;17.00;89.30;;;;;;6127036;23;20006;-75
2023/04/29 00:23:10;;;;;;;14.00;12.23;;;17.00;89.30;;;;;;6125796;23;20006;-75
2023/04/29 00:25:37;;;;;;;13.98;11.35;;;17.00;89.40;;;;;;6124896;23;20094;-75
2023/04/29 00:28:04;;;;;;;14.20;10.63;;;17.00;89.60;;;;;;6125777;23;20013;-75
2023/04/29 00:30:31;;;;;;;13.40;10.27;;;16.90;89.60;;;;;;6126425;23;20054;-75
2023/04/29 00:32:57;;;;;;;12.07;9.55;;;17.00;89.70;;;;;;6126439;23;20005;-75
2023/04/29 00:35:22;;;;;;;10.45;8.30;;;17.00;89.70;;;;;;6099662;23;20433;-75
2023/04/29 00:37:48;;;;;;;14.38;9.10;;;17.00;89.50;;;;;;6125866;23;20006;-75
2023/04/29 00:40:15;;;;;;;13.50;8.48;;;17.00;89.50;;;;;;6126322;23;20025;-75
2023/04/29 00:42:41;;;;;;;13.65;8.18;;;17.00;89.50;;;;;;6126851;23;20010;-75
2023/04/29 00:45:08;;;;;;;12.48;9.38;;;16.90;89.40;;;;;;6125575;23;20052;-75
2023/04/29 00:47:34;;;;;;;8.98;8.05;;;16.90;89.40;;;;;;6126468;23;20017;-75
2023/04/29 00:50:00;;;;;;;13.27;8.40;;;16.90;89.40;;;;;;6126081;23;20006;-75
2023/04/29 00:52:29;;;;;;;12.73;8.43;;;17.00;89.40;;;;;;6126143;23;20002;-75
2023/04/29 00:54:55;;;;;;;11.77;8.05;;;17.00;89.20;;;;;;6123195;23;20028;-74
2023/04/29 00:57:21;;;;;;;10.60;8.20;;;17.00;89.20;;;;;;6126140;23;20428;-75
2023/04/29 00:59:48;;;;;;;10.82;8.20;;;17.00;89.20;;;;;;6125921;23;20005;-75
2023/04/29 01:02:16;;;;;;;11.25;8.23;;;17.00;89.10;;;;;;6125785;23;20002;-75
2023/04/29 01:04:42;;;;;;;11.95;8.32;;;17.00;89.00;;;;;;6125543;23;20002;-74
2023/04/29 01:07:16;;;;;;;9.73;7.68;;;16.90;89.10;;;;;;6126042;23;20025;-74
2023/04/29 01:09:42;;;;;;;12.20;7.50;;;16.90;89.20;;;;;;6125692;23;20010;-74
2023/04/29 01:12:30;;;;;;;8.68;7.18;;;17.00;89.30;;;;;;6124142;23;20383;-74
2023/04/29 01:15:22;;;;;;;10.73;7.20;;;17.00;89.40;;;;;;6125692;23;20021;-75
2023/04/29 01:17:59;;;;;;;12.48;7.95;;;17.00;89.50;;;;;;6125181;23;20405;-74
2023/04/29 01:20:26;;;;;;;10.05;7.43;;;16.90;89.30;;;;;;6099345;23;20040;-75
2023/04/29 01:22:51;;;;;;;13.15;7.95;;;16.90;89.30;;;;;;6124955;23;20004;-74
2023/04/29 01:25:17;;;;;;;10.35;7.20;;;16.90;89.30;;;;;;6125190;23;20321;-74
2023/04/29 01:28:20;;;;;;;10.88;7.53;;;16.90;89.30;;;;;;6099090;23;20002;-74
2023/04/29 01:30:53;;;;;;;12.52;8.00;;;16.90;89.40;;;;;;6125506;23;20002;-74
2023/04/29 01:33:39;;;;;;;11.63;9.00;;;16.80;89.30;;;;;;6124117;23;20014;-75
2023/04/29 01:36:21;;;;;;;12.73;9.23;;;16.80;89.40;;;;;;6125351;23;20002;-75
2023/04/29 01:38:59;;;;;;;11.95;9.57;;;16.80;89.50;;;;;;6125866;23;20021;-75
2023/04/29 01:42:07;;;;;;;12.73;10.23;;;16.80;89.10;;;;;;6125823;23;20044;-75
2023/04/29 01:44:34;;;;;;;15.57;10.15;;;16.80;88.90;;;;;;5973765;23;20025;-75
2023/04/29 01:47:00;;;;;;;11.45;9.65;;;16.70;88.90;;;;;;6125978;23;20009;-75
2023/04/29 01:49:27;;;;;;;14.60;10.50;;;16.60;88.70;;;;;;6125765;23;20008;-74
2023/04/29 01:51:52;;;;;;;14.50;10.15;;;16.60;88.70;;;;;;6099530;23;20002;-75
2023/04/29 01:54:18;;;;;;;13.98;9.95;;;16.60;88.70;;;;;;6124608;23;20014;-74
2023/04/29 01:56:44;;;;;;;14.93;10.20;;;16.60;88.60;;;;;;6125074;23;20053;-75
2023/04/29 01:59:10;;;;;;;13.88;10.73;;;16.60;88.40;;;;;;6125831;23;20384;-75
2023/04/29 02:01:36;;;;;;;10.65;9.32;;;16.60;88.50;;;;;;6124889;23;19998;-75
2023/04/29 02:04:02;;;;;;;13.73;9.95;;;16.60;88.30;;;;;;6124915;23;20006;-75
2023/04/29 02:06:30;;;;;;;12.55;9.88;;;16.60;88.10;;;;;;6099149;23;20102;-75
2023/04/29 02:08:57;;;;;;;14.70;10.23;;;16.70;87.90;;;;;;6124551;23;20096;-75
2023/04/29 02:11:22;;;;;;;11.65;9.40;;;16.60;87.70;;;;;;6125111;23;20009;-75
2023/04/29 02:13:48;;;;;;;11.50;9.27;;;16.60;87.70;;;;;;6122876;23;20314;-75
2023/04/29 02:16:15;;;;;;;14.50;10.10;;;16.60;87.80;;;;;;6125403;23;20448;-75
2023/04/29 02:18:41;;;;;;;11.38;9.35;;;16.60;87.70;;;;;;6125702;23;20002;-75
2023/04/29 02:21:07;;;;;;;12.57;8.82;;;16.60;87.60;;;;;;6125633;23;20009;-75
2023/04/29 02:23:34;;;;;;;11.70;9.65;;;16.60;87.50;;;;;;6123975;23;20377;-75
2023/04/29 02:26:00;;;;;;;11.85;8.95;;;16.60;87.70;;;;;;6124881;23;20310;-75
2023/04/29 02:28:26;;;;;;;10.85;8.93;;;16.60;87.70;;;;;;6099431;23;20010;-74
2023/04/29 02:30:52;;;;;;;13.00;8.63;;;16.60;87.80;;;;;;6125202;23;20488;-75
2023/04/29 02:33:17;;;;;;;10.88;8.45;;;16.60;87.90;;;;;;6100588;23;20099;-75
2023/04/29 02:35:43;;;;;;;11.18;8.18;;;16.60;87.80;;;;;;6126835;23;20002;-75
2023/04/29 02:38:10;;;;;;;12.88;8.50;;;16.50;87.70;;;;;;6127623;23;20069;-75
2023/04/29 02:40:43;;;;;;;10.82;8.52;;;16.50;87.80;;;;;;6126950;23;20005;-75
2023/04/29 02:43:09;;;;;;;11.25;8.90;;;16.50;87.80;;;;;;6101547;23;20088;-75
2023/04/29 02:45:36;;;;;;;10.95;9.20;;;16.50;87.90;;;;;;6127631;23;20352;-75
2023/04/29 02:48:02;;;;;;;9.60;8.27;;;16.50;87.90;;;;;;6124283;23;20082;-75
2023/04/29 02:50:28;;;;;;;10.27;8.52;;;16.50;88.00;;;;;;6128029;23;20030;-75
2023/04/29 02:52:54;;;;;;;11.60;9.60;;;16.40;87.90;;;;;;6126382;23;20002;-75
2023/04/29 02:55:20;;;;;;;11.02;9.15;;;16.50;88.50;;;;;;6127172;23;20013;-74
2023/04/29 02:57:46;;;;;;;12.68;8.95;;;16.50;88.00;;;;;;6127232;23;20002;-74
2023/04/29 03:00:12;;;;;;;11.07;8.45;;;16.50;88.10;;;;;;6126972;23;20431;-74
2023/04/29 03:02:37;;;;;;;11.65;9.05;;;16.50;88.00;;;;;;6126696;23;20002;-74
2023/04/29 03:05:04;;;;;;;11.05;8.45;;;16.50;87.90;;;;;;6127588;23;20018;-74
2023/04/29 03:07:45;;;;;;;11.13;8.55;;;16.50;87.70;;;;;;6126281;23;20048;-75
2023/04/29 03:10:11;;;;;;;11.05;9.43;;;16.50;87.60;;;;;;6127370;23;20005;-74
2023/04/29 03:12:38;;;;;;;12.75;9.85;;;16.50;87.50;;;;;;6126577;23;20005;-74
2023/04/29 03:15:05;;;;;;;12.77;9.38;;;16.50;87.20;;;;;;6101083;23;20009;-74
2023/04/29 03:17:32;;;;;;;14.98;9.60;;;16.50;87.10;;;;;;6126554;23;20009;-74
2023/04/29 03:19:58;;;;;;;10.65;9.32;;;16.40;87.10;;;;;;6126725;23;20013;-75
2023/04/29 03:22:24;;;;;;;10.38;8.55;;;16.40;86.90;;;;;;6126121;23;20405;-75
2023/04/29 03:24:50;;;;;;;10.70;9.00;;;16.40;86.80;;;;;;6126985;23;20009;-75
2023/04/29 03:27:16;;;;;;;14.32;8.80;;;16.40;86.60;;;;;;6126496;23;20006;-75
2023/04/29 03:29:42;;;;;;;12.05;9.10;;;16.40;86.30;;;;;;6100622;23;20006;-75
2023/04/29 03:32:07;;;;;;;12.93;9.50;;;16.40;86.30;;;;;;6100229;23;20009;-74
2023/04/29 03:34:33;;;;;;;12.18;9.50;;;16.40;86.30;;;;;;6126092;23;20014;-75
2023/04/29 03:37:00;;;;;;;12.05;9.30;;;16.40;86.40;;;;;;6125615;23;20448;-74
2023/04/29 03:39:30;;;;;;;12.20;9.77;;;16.40;86.20;;;;;;6126733;23;20021;-74
2023/04/29 03:41:56;;;;;;;18.15;11.20;;;16.40;86.00;;;;;;6126046;23;20049;-75
2023/04/29 03:44:21;;;;;;;13.25;10.27;;;16.40;86.00;;;;;;6126505;23;20014;-75
2023/04/29 03:46:47;;;;;;;14.13;9.60;;;16.30;85.90;;;;;;6126547;23;20401;-74
2023/04/29 03:49:13;;;;;;;10.23;8.85;;;16.30;86.30;;;;;;6127055;23;20009;-74
2023/04/29 03:51:38;;;;;;;12.93;9.07;;;16.30;86.00;;;;;;6125894;23;20106;-74
2023/04/29 03:54:05;;;;;;;11.43;9.10;;;16.30;86.00;;;;;;6125521;23;20060;-74
2023/04/29 03:56:31;;;;;;;11.70;8.75;;;16.30;86.20;;;;;;6100657;23;20033;-74
2023/04/29 03:58:56;;;;;;;11.95;9.45;;;16.30;86.00;;;;;;6126305;23;20002;-74
2023/04/29 04:01:22;;;;;;;14.32;9.73;;;16.30;86.00;;;;;;6126300;23;20002;-74
2023/04/29 04:03:48;;;;;;;10.93;8.82;;;16.30;86.10;;;;;;6125943;23;20006;-73
2023/04/29 04:06:13;;;;;;;12.60;8.43;;;16.30;86.40;;;;;;6126089;23;20392;-74
2023/04/29 04:08:40;;;;;;;12.25;9.35;;;16.30;86.20;;;;;;6126142;23;20006;-74
2023/04/29 04:11:05;;;;;;;11.25;9.45;;;16.30;86.20;;;;;;6126805;23;20001;-75
2023/04/29 04:13:31;;;;;;;11.05;9.40;;;16.20;86.10;;;;;;6099834;23;20013;-75
2023/04/29 04:15:57;;;;;;;9.73;8.35;;;16.20;86.00;;;;;;6125729;23;20002;-75
2023/04/29 04:18:23;;;;;;;10.77;8.30;;;16.20;86.20;;;;;;6126006;23;20266;-75
2023/04/29 04:20:48;;;;;;;11.60;9.20;;;16.10;86.40;;;;;;6126355;23;20032;-75
2023/04/29 04:23:14;;;;;;;12.70;10.18;;;16.10;86.50;;;;;;6125675;23;20012;-74
2023/04/29 04:25:49;;;;;;;12.23;9.00;;;16.10;86.60;;;;;;6124857;23;20247;-74
2023/04/29 04:28:15;;;;;;;11.82;9.30;;;16.00;87.00;;;;;;6126559;23;20030;-74
2023/04/29 04:30:41;;;;;;;10.90;9.35;;;15.90;87.30;;;;;;6126254;23;20009;-74
2023/04/29 04:33:10;;;;;;;12.68;9.13;;;15.90;87.20;;;;;;6125594;23;20030;-75
2023/04/29 04:35:36;;;;;;;11.70;9.80;;;15.90;87.30;;;;;;6125940;23;20060;-74
2023/04/29 04:38:01;;;;;;;14.70;11.23;;;15.80;87.20;;;;;;6126497;23;20029;-74
2023/04/29 04:40:27;;;;;;;12.70;10.00;;;15.80;87.20;;;;;;6126440;23;20005;-75
2023/04/29 04:42:53;;;;;;;11.70;9.35;;;15.70;87.30;;;;;;6125563;23;20785;-74
2023/04/29 04:45:19;;;;;;;16.88;10.65;;;15.70;87.40;;;;;;6124477;23;20009;-74
2023/04/29 04:47:44;;;;;;;13.73;10.48;;;15.60;87.30;;;;;;6125649;23;20077;-74
2023/04/29 04:50:10;;;;;;;11.88;9.15;;;15.60;87.30;;;;;;6126488;23;20052;-75
2023/04/29 04:52:36;;;;;;;12.15;9.32;;;15.60;87.40;;;;;;6126076;23;20077;-75
2023/04/29 04:55:01;;;;;;;10.75;8.90;;;15.60;88.40;;;;;;6124632;23;20443;-75
2023/04/29 04:57:27;;;;;;;11.90;8.82;;;15.60;87.90;;;;;;6126048;23;20321;-74
2023/04/29 04:59:53;;;;;;;12.10;9.50;;;15.60;88.60;;;;;;6124599;23;20002;-74
2023/04/29 05:02:18;;;;;;;13.38;9.95;;;15.60;88.60;;;;;;6124962;23;20040;-76
2023/04/29 05:04:44;;;;;;;12.40;9.82;;;15.60;88.70;;;;;;6124946;23;20012;-75
2023/04/29 05:07:10;;;;;;;10.95;8.50;;;15.50;88.70;;;;;;6126076;23;20010;-75
2023/04/29 05:09:36;;;;;;;11.05;8.57;;;15.50;88.50;;;;;;6099271;23;20013;-75
2023/04/29 05:12:02;;;;;;;12.73;10.00;;;15.50;88.60;;;;;;6124851;23;20077;-75
2023/04/29 05:14:28;;;;;;;11.43;8.95;;;15.50;89.00;;;;;;6125277;23;20002;-75
2023/04/29 05:17:00;;;;;;;19.23;10.20;;;15.50;89.20;;;;;;6124356;23;20002;-75
2023/04/29 05:19:26;;;;;;;11.00;8.45;;;15.50;89.00;;;;;;6125240;23;20049;-75
2023/04/29 05:21:51;;;;;;;9.95;7.57;;;15.50;89.10;;;;;;6124896;23;20002;-76
2023/04/29 05:24:17;;;;;;;10.30;7.45;;;15.50;89.20;;;;;;6125010;23;20037;-76
2023/04/29 05:26:43;;;;;;;11.45;7.75;;;15.50;89.00;;;;;;6123927;23;20009;-75
2023/04/29 05:29:10;;;;;;;10.65;8.43;;;15.50;88.70;;;;;;6125595;23;20113;-75
2023/04/29 05:31:36;;;;;;;10.40;8.15;;;15.40;88.80;;;;;;6126158;23;20341;-75
2023/04/29 05:34:02;;;;;;;10.23;7.75;;;15.50;88.90;;;;;;6125655;23;20074;-75
2023/04/29 05:36:28;;;;;;;9.82;6.90;;;15.50;88.80;;;;;;6100014;23;20085;-75
2023/04/29 05:38:54;;;;;;;10.27;7.47;;;15.50;88.70;;;;;;6125654;23;20025;-75
2023/04/29 05:41:20;;;;;;;10.73;6.93;;;15.50;88.60;;;;;;6125296;23;20469;-76
2023/04/29 05:43:45;;;;;;;9.80;7.57;;;15.50;88.40;;;;;;6124871;23;20063;-79
2023/04/29 05:46:15;;;;;;;9.55;7.93;;;15.50;88.50;;;;;;6124782;23;20033;-77
2023/04/29 05:48:41;;;;;;;9.63;6.73;;;15.50;88.70;;;;;;6100118;23;20436;-77
2023/04/29 05:51:06;;;;;;;8.85;7.00;;;15.50;89.70;;;;;;6124722;23;20005;-77
2023/04/29 05:53:32;;;;;;;8.73;6.80;;;15.70;89.50;;;;;;6099797;23;20061;-77
2023/04/29 05:55:58;;;;;;;12.02;6.45;;;15.70;89.00;;;;;;6124963;23;20006;-77
2023/04/29 05:58:24;;;;;;;11.07;7.15;;;15.80;88.70;;;;;;6125649;23;20024;-78
2023/04/29 06:00:51;;;;;;;8.70;6.57;;;15.90;87.90;;;;;;6124421;23;20425;-81
2023/04/29 06:03:17;;;;;;;8.82;6.47;;;15.90;87.80;;;;;;6123982;23;20085;-79
2023/04/29 06:05:42;;;;;;;8.57;6.68;;;16.00;87.90;;;;;;6122134;23;20372;-77
2023/04/29 06:08:09;;;;;;;12.02;7.63;;;16.10;88.00;;;;;;6125639;23;20306;-77
2023/04/29 06:10:35;;;;;;;8.55;6.45;;;16.10;87.80;;;;;;6126134;23;20029;-77
2023/04/29 06:13:01;;;;;;;8.45;6.72;;;16.20;87.70;;;;;;6127757;23;20105;-77
2023/04/29 06:15:27;;;;;;;8.30;6.18;;;16.20;87.50;;;;;;6127423;23;20025;-79
2023/04/29 06:17:53;;;;;;;8.88;6.10;;;16.20;87.00;;;;;;6127195;23;20026;-79
2023/04/29 06:20:19;;;;;;;8.40;5.88;;;16.20;87.00;;;;;;6127612;23;20069;-79
2023/04/29 06:22:47;;;;;;;7.38;6.10;;;16.20;87.20;;;;;;6127591;23;20006;-79
2023/04/29 06:25:13;;;;;;;9.00;6.60;;;16.20;86.80;;;;;;6127779;23;20006;-79
2023/04/29 06:27:42;;;;;;;8.73;5.70;;;16.30;87.20;;;;;;6127730;23;20005;-79
2023/04/29 06:30:08;;;;;;;8.07;6.03;;;16.30;87.20;;;;;;6128341;23;19998;-79
2023/04/29 06:32:34;;;;;;;7.50;5.55;;;16.40;87.00;;;;;;6127791;23;20006;-79
2023/04/29 06:35:00;;;;;;;7.38;5.30;;;16.40;86.90;;;;;;6127342;23;20041;-79
2023/04/29 06:37:26;;;;;;;8.52;5.90;;;16.40;86.80;;;;;;6127499;23;20026;-79
2023/04/29 06:39:52;;;;;;;6.43;5.18;;;16.50;86.90;;;;;;6101652;23;20094;-79
2023/04/29 06:42:18;;;;;;;8.13;5.63;;;16.50;86.70;;;;;;6100116;23;20026;-79
2023/04/29 06:44:44;;;;;;;6.03;5.30;;;16.50;86.60;;;;;;6127763;23;20009;-79
2023/04/29 06:47:10;;;;;;;6.07;4.53;;;16.50;85.90;;;;;;6128067;23;20325;-79
2023/04/29 06:49:35;;;;;;;11.18;5.43;;;16.60;85.90;;;;;;6127734;23;20005;-79
2023/04/29 06:52:01;;;;;;;7.80;5.43;;;16.50;85.80;;;;;;6127307;23;20417;-79
2023/04/29 06:54:27;;;;;;;8.45;5.60;;;16.50;85.80;;;;;;6127420;23;20342;-79
2023/04/29 06:56:53;;;;;;;8.57;5.35;;;16.50;86.00;;;;;;6127422;23;20002;-79
2023/04/29 06:59:19;;;;;;;6.63;5.43;;;16.50;86.20;;;;;;6127691;23;20485;-79
2023/04/29 07:01:44;;;;;;;7.97;5.55;;;16.50;86.10;;;;;;6101472;23;20436;-79
2023/04/29 07:04:10;;;;;;;6.70;5.20;;;16.50;86.10;;;;;;6127548;23;20313;-79
2023/04/29 07:06:36;;;;;;;6.47;5.10;;;16.50;86.20;;;;;;6127392;23;20386;-80
2023/04/29 07:09:02;;;;;;;7.50;6.40;;;16.50;86.30;;;;;;6100350;23;20021;-80
2023/04/29 07:11:28;;;;;;;8.95;6.20;;;16.60;87.00;;;;;;6127031;23;20002;-80
2023/04/29 07:13:53;;;;;;;10.23;6.32;;;16.60;86.90;;;;;;6127320;23;20040;-79
2023/04/29 07:16:20;;;;;;;6.60;5.43;;;16.70;86.50;;;;;;6127172;23;20436;-78
2023/04/29 07:18:49;;;;;;;6.03;5.43;;;16.80;86.60;;;;;;6126604;23;20006;-78
2023/04/29 07:21:14;;;;;;;7.60;5.75;;;16.80;86.80;;;;;;6127636;23;20077;-78
2023/04/29 07:23:40;;;;;;;7.30;6.10;;;16.90;86.90;;;;;;6127556;23;20033;-78
2023/04/29 07:26:10;;;;;;;6.35;4.97;;;17.00;86.70;;;;;;6127596;23;20308;-78
2023/04/29 07:28:36;;;;;;;;;;;17.10;86.60;;;;;;6127350;23;20009;-78
2023/04/29 07:31:01;;;;;;;6.88;4.88;;;17.10;86.60;;;;;;6127709;23;20271;-78
2023/04/29 07:33:27;;;;;;;10.05;4.80;;;17.20;86.60;;;;;;6127284;23;20014;-78
2023/04/29 07:35:53;;;;;;;6.25;4.57;;;17.30;86.80;;;;;;6127410;23;20048;-78
2023/04/29 07:38:20;;;;;;;7.35;4.72;;;17.30;86.50;;;;;;6127380;23;20002;-78
2023/04/29 07:40:46;;;;;;;7.30;5.47;;;17.40;86.80;;;;;;6127417;23;19998;-78
2023/04/29 07:43:11;;;;;;;6.35;4.60;;;17.50;86.60;;;;;;6127490;23;20013;-78
2023/04/29 07:45:38;;;;;;;6.00;4.95;;;17.60;86.90;;;;;;6127281;23;20081;-78
2023/04/29 07:48:05;;;;;;;7.95;5.20;;;17.70;86.40;;;;;;6127185;23;20009;-78
2023/04/29 07:50:33;;;;;;;6.45;4.50;;;17.80;86.40;;;;;;6125327;23;20026;-79
2023/04/29 07:53:00;;;;;;;11.00;5.38;;;17.90;85.90;;;;;;6126200;23;20401;-79
2023/04/29 07:55:28;;;;;;;8.30;4.90;;;18.00;85.80;;;;;;6100387;23;20006;-79
2023/04/29 07:57:54;;;;;;;8.52;4.75;;;18.00;85.60;;;;;;6125146;23;20370;-78
2023/04/29 08:00:21;;;;;;;7.70;4.90;;;18.00;85.30;;;;;;6125402;23;20385;-78
2023/04/29 08:02:51;;;;;;;15.45;5.63;;;18.00;85.10;;;;;;6100504;23;20009;-76
2023/04/29 08:05:17;;;;;;;11.57;5.07;;;18.10;85.40;;;;;;6126954;23;20009;-76
2023/04/29 08:07:43;;;;;;;6.45;4.07;;;18.20;85.60;;;;;;6127334;23;20006;-76
2023/04/29 08:10:09;;;;;;;5.63;4.18;;;18.30;84.70;;;;;;6127317;23;20397;-76
2023/04/29 08:12:35;;;;;;;6.45;3.80;;;18.30;84.90;;;;;;6125798;23;20005;-76
2023/04/29 08:15:00;;;;;;;8.95;3.88;;;18.30;84.30;;;;;;6126517;23;20002;-76
2023/04/29 08:17:26;;;;;;;4.00;2.95;;;18.30;84.40;;;;;;6121370;23;20006;-77
2023/04/29 08:19:52;;;;;;;4.57;3.20;;;18.30;84.50;;;;;;6126394;23;20005;-77
2023/04/29 08:22:17;;;;;;;6.80;3.83;;;18.40;84.60;;;;;;6126403;23;20005;-77
2023/04/29 08:24:44;;;;;;;6.60;3.63;;;18.50;84.80;;;;;;6126796;23;20013;-77
2023/04/29 08:27:09;;;;;;;4.85;3.33;;;18.60;84.50;;;;;;6126935;23;20309;-76
2023/04/29 08:29:36;;;;;;;8.85;3.45;;;18.70;84.20;;;;;;6126944;23;20061;-76
2023/04/29 08:32:02;;;;;;;4.45;3.33;;;18.70;84.10;;;;;;6126984;23;20006;-76
2023/04/29 08:34:27;;;;;;;8.30;3.08;;;18.80;83.80;;;;;;6126616;23;20044;-76
2023/04/29 08:36:53;;;;;;;5.05;2.88;;;18.90;84.10;;;;;;6126382;23;20009;-77
2023/04/29 08:39:19;;;;;;;5.50;2.55;;;19.00;83.70;;;;;;6126257;23;20393;-77
2023/04/29 08:41:50;;;;;;;5.05;3.50;;;19.10;83.20;;;;;;6126490;23;19998;-76
2023/04/29 08:44:16;;;;;;;9.77;3.42;;;19.10;83.00;;;;;;6125873;23;20002;-76
2023/04/29 08:46:45;;;;;;;5.78;3.13;;;19.10;82.90;;;;;;6126164;23;20006;-76
2023/04/29 08:49:11;;;;;;;10.75;3.00;;;19.20;82.70;;;;;;6126259;23;20052;-76
2023/04/29 08:51:37;;;;;;;5.10;2.72;;;19.20;82.80;;;;;;6126218;23;20016;-76
2023/04/29 08:54:03;;;;;;;4.85;2.22;;;19.20;82.30;;;;;;6125962;23;20006;-76
2023/04/29 08:56:30;;;;;;;3.92;2.08;;;19.30;82.20;;;;;;6126321;23;20305;-76
2023/04/29 08:58:57;;;;;;;5.93;2.83;;;19.30;82.00;;;;;;6126549;23;20002;-76
2023/04/29 09:01:28;;;;;;;3.05;2.50;;;19.30;81.80;;;;;;6126363;23;19998;-77
2023/04/29 09:04:12;;;;;;;6.10;2.50;;;19.30;81.10;;;;;;6126040;23;20037;-77
2023/04/29 09:06:38;;;;;;;5.50;2.90;;;19.30;81.40;;;;;;6126112;23;20006;-76
2023/04/29 09:09:05;;;;;;;6.35;3.25;;;19.30;81.50;;;;;;6126231;23;20056;-76
2023/04/29 09:11:32;;;;;;;4.65;3.53;;;19.30;81.90;;;;;;6123090;23;20013;-76
2023/04/29 09:14:03;;;;;;;3.95;3.55;;;19.30;82.00;;;;;;6125159;23;20010;-76
2023/04/29 09:16:29;;;;;;;5.15;3.00;;;19.30;81.70;;;;;;6125941;23;20085;-77
2023/04/29 09:18:55;;;;;;;4.05;2.70;;;19.30;81.70;;;;;;6100315;23;20370;-77
2023/04/29 09:21:23;;;;;;;6.40;3.42;;;19.30;81.70;;;;;;6100095;23;20002;-77
2023/04/29 09:23:52;;;;;;;5.15;2.63;;;19.30;81.70;;;;;;6126176;23;20452;-77
2023/04/29 09:26:19;;;;;;;4.32;2.72;;;19.30;82.00;;;;;;6126206;23;20076;-78
2023/04/29 09:28:46;;;;;;;4.72;2.53;;;19.40;82.10;;;;;;6125726;23;20009;-78
2023/04/29 09:31:12;;;;;;;6.72;2.80;;;19.40;82.20;;;;;;6126410;23;20056;-78
2023/04/29 09:33:50;;;;;;;4.97;2.45;;;19.40;81.60;;;;;;6125893;23;20013;-78
2023/04/29 09:36:47;;;;;;;6.20;2.80;;;19.50;81.30;;;;;;6126120;23;20005;-78
2023/04/29 09:39:21;;;;;;;4.68;3.00;;;19.50;81.30;;;;;;6126973;23;20433;-78
2023/04/29 09:41:52;;;;;;;4.00;2.65;;;19.50;80.40;;;;;;6126442;23;20048;-78
2023/04/29 09:44:24;;;;;;;3.80;2.28;;;19.50;80.20;;;;;;6126142;23;20053;-77
2023/04/29 09:47:05;;;;;;;3.50;2.58;;;19.50;79.80;;;;;;6100115;23;20009;-77
2023/04/29 09:49:40;;;;;;;3.75;2.28;;;19.40;80.10;;;;;;6126310;23;20009;-77
2023/04/29 09:52:08;;;;;;;3.22;2.10;;;19.40;80.10;;;;;;6126368;23;20459;-77
2023/04/29 09:54:35;;;;;;;3.15;2.70;;;19.50;80.00;;;;;;6125322;23;20077;-77
2023/04/29 09:57:04;;;;;;;2.85;1.95;;;19.50;80.10;;;;;;6126621;23;20025;-77
2023/04/29 09:59:31;;;;;;;5.93;2.60;;;19.50;80.30;;;;;;6126425;23;20008;-78
2023/04/29 10:01:58;;;;;;;5.20;2.30;;;19.70;80.10;;;;;;6126377;23;20436;-78
2023/04/29 10:04:25;;;;;;;4.05;2.75;;;19.70;79.70;;;;;;6126593;23;20332;-76
2023/04/29 10:06:53;;;;;;;5.45;3.20;;;19.80;79.30;;;;;;6126539;23;20020;-76
2023/04/29 10:09:20;;;;;;;4.88;2.83;;;19.80;78.80;;;;;;6126514;23;20060;-76
2023/04/29 10:11:49;;;;;;;3.05;2.58;;;19.90;78.70;;;;;;6127085;23;20077;-76
2023/04/29 10:14:17;;;;;;;3.55;2.67;;;19.90;79.30;;;;;;6126360;23;20026;-76
2023/04/29 10:17:05;;;;;;;6.15;2.63;;;19.90;78.60;;;;;;6125746;23;20038;-76
2023/04/29 10:19:50;;;;;;;5.45;2.92;;;20.00;78.10;;;;;;6126450;23;19998;-76
2023/04/29 10:22:25;;;;;;;3.95;2.88;;;20.00;78.20;;;;;;6126671;23;20409;-76
2023/04/29 10:24:54;;;;;;;4.55;2.88;;;20.10;78.40;;;;;;6100752;23;20433;-76
2023/04/29 10:27:21;;;;;;;3.42;2.78;;;20.10;77.90;;;;;;6126712;23;20414;-75
2023/04/29 10:29:48;;;;;;;3.03;2.40;;;20.00;77.80;;;;;;6126540;23;20433;-75
2023/04/29 10:32:15;;;;;;;6.18;3.03;;;20.10;78.10;;;;;;6100493;23;20013;-76
2023/04/29 10:34:41;;;;;;;5.13;3.05;;;20.10;78.40;;;;;;6126314;23;20010;-76
2023/04/29 10:37:11;;;;;;;3.67;2.90;;;20.20;78.30;;;;;;6126231;23;20004;-76
2023/04/29 10:39:43;;;;;;;6.15;3.38;;;20.30;78.20;;;;;;6125955;23;20440;-76
2023/04/29 10:42:32;;;;;;;5.65;3.13;;;20.30;77.50;;;;;;6126278;23;20001;-76
2023/04/29 10:45:23;;;;;;;3.77;2.73;;;20.30;77.10;;;;;;6126369;23;20010;-76
2023/04/29 10:48:10;;;;;;;5.05;2.83;;;20.40;77.30;;;;;;6126378;23;20013;-76
2023/04/29 10:50:46;;;;;;;4.72;2.55;;;20.70;77.90;;;;;;6125421;23;20417;-76
2023/04/29 10:53:13;;;;;;;6.13;3.13;;;21.00;77.60;;;;;;6127008;23;20006;-76
2023/04/29 10:55:39;;;;;;;6.15;3.03;;;21.10;75.50;;;;;;6128224;23;20005;-76
2023/04/29 10:58:25;;;;;;;4.05;2.42;;;21.20;75.40;;;;;;6127673;23;20337;-76
2023/04/29 11:00:52;;;;;;;3.97;2.17;;;21.20;74.80;;;;;;6127878;23;20081;-76
2023/04/29 11:03:57;;;;;;;7.25;2.45;;;21.40;75.00;;;;;;6128013;23;20056;-76
2023/04/29 11:06:35;;;;;;;3.28;1.95;;;21.60;74.40;;;;;;6128442;23;20443;-76
2023/04/29 11:09:03;;;;;;;3.80;2.70;;;21.70;74.50;;;;;;6128197;23;20032;-76
2023/04/29 11:11:48;;;;;;;5.18;2.20;;;21.90;74.00;;;;;;6128029;23;20443;-76
2023/04/29 11:14:20;;;;;;;4.47;2.13;;;22.10;73.50;;;;;;6127479;23;20005;-76
2023/04/29 11:16:59;;;;;;;5.22;2.10;;;22.20;73.30;;;;;;6127970;23;20002;-76
2023/04/29 11:19:33;;;;;;;4.72;2.63;;;22.20;73.60;;;;;;6122764;23;20002;-76
2023/04/29 11:22:10;;;;;;;3.35;2.00;;;22.30;72.80;;;;;;6127019;23;19998;-76
2023/04/29 11:24:47;;;;;;;3.63;2.20;;;22.30;72.60;;;;;;6125084;23;20305;-76
2023/04/29 11:27:14;;;;;;;4.15;1.90;;;22.40;72.10;;;;;;6127058;23;20072;-76
2023/04/29 11:29:40;;;;;;;3.63;2.55;;;22.30;72.70;;;;;;6127293;23;20009;-76
2023/04/29 11:32:06;;;;;;;3.40;2.40;;;22.40;72.90;;;;;;6128003;23;20006;-76
2023/04/29 11:34:32;;;;;;;4.65;2.72;;;22.50;73.00;;;;;;6127667;23;20069;-76
2023/04/29 11:36:59;;;;;;;5.25;2.58;;;22.70;72.40;;;;;;6126821;23;20401;-76
2023/04/29 11:39:26;;;;;;;5.20;2.25;;;22.90;72.30;;;;;;6101062;23;20054;-76
2023/04/29 11:42:01;;;;;;;4.53;2.42;;;23.10;71.50;;;;;;6126662;23;20002;-76
2023/04/29 11:44:27;;;;;;;3.67;1.65;;;23.40;70.60;;;;;;6126741;23;20044;-76
2023/04/29 11:47:00;;;;;;;3.63;2.28;;;23.70;70.70;;;;;;6126291;23;20417;-76
2023/04/29 11:49:31;;;;;;;6.50;2.78;;;24.00;70.30;;;;;;6126534;23;20009;-77
2023/04/29 11:51:56;;;;;;;3.95;2.13;;;24.30;69.70;;;;;;6127074;23;20006;-76
2023/04/29 11:54:28;;;;;;;4.20;2.25;;;24.50;69.40;;;;;;6127046;23;20386;-77
2023/04/29 11:56:54;;;;;;;3.05;2.35;;;24.80;69.20;;;;;;6126632;23;20003;-76
2023/04/29 11:59:21;;;;;;;4.32;2.45;;;25.10;68.70;;;;;;6126944;23;20416;-77
2023/04/29 12:01:48;;;;;;;5.60;2.58;;;25.20;67.70;;;;;;6127207;23;20002;-76
2023/04/29 12:04:14;;;;;;;2.75;2.05;;;25.30;67.30;;;;;;6127087;23;20002;-76
2023/04/29 12:06:40;;;;;;;4.28;2.67;;;25.50;66.70;;;;;;6126593;23;20073;-76
2023/04/29 12:09:06;;;;;;;4.45;2.85;;;25.40;65.60;;;;;;6127173;23;20008;-76
2023/04/29 12:11:33;;;;;;;6.05;2.53;;;25.30;64.90;;;;;;6126504;23;20102;-76
2023/04/29 12:14:01;;;;;;;4.55;2.53;;;25.30;66.30;;;;;;6126997;23;20026;-76
2023/04/29 12:16:28;;;;;;;4.38;2.50;;;25.30;66.20;;;;;;6126207;23;20001;-77
2023/04/29 12:18:55;;;;;;;6.82;2.63;;;25.50;65.80;;;;;;6126375;23;20290;-76
2023/04/29 12:21:21;;;;;;;4.78;2.60;;;25.70;65.70;;;;;;6100894;23;20006;-76
2023/04/29 12:23:47;;;;;;;6.25;2.92;;;25.90;65.20;;;;;;6127318;23;20030;-77
2023/04/29 12:26:13;;;;;;;3.30;2.03;;;26.20;64.70;;;;;;6125841;23;20017;-76
2023/04/29 12:28:42;;;;;;;3.35;2.13;;;26.40;63.90;;;;;;6140683;23;20029;-77
2023/04/29 12:31:12;;;;;;;5.20;3.08;;;26.60;63.60;;;;;;6138023;23;20669;-77
2023/04/29 12:33:41;;;;;;;6.82;3.15;;;26.70;62.70;;;;;;6133418;23;20014;-77
2023/04/29 12:36:17;;;;;;;4.68;2.63;;;26.90;62.20;;;;;;6142771;23;20021;-77
2023/04/29 12:38:42;;;;;;;4.78;2.63;;;27.00;61.50;;;;;;6137050;23;20010;-77
2023/04/29 12:41:08;;;;;;;4.43;2.13;;;27.00;61.60;;;;;;6134533;23;20424;-77
2023/04/29 12:43:35;;;;;;;4.38;2.63;;;27.10;61.60;;;;;;6132230;23;20053;-77
2023/04/29 12:46:06;;;;;;;4.85;2.10;;;27.10;61.40;;;;;;6133049;23;20062;-78